sensor_id;sensor_type;location;lat;lon;timestamp;pressure;altitude;pressure_sealevel;temperature;humidity
63700;BME280;49845;47.130;142.766;2022-09-01T00:00:58;100215.41;;;18.82;85.55
63700;BME280;49845;47.130;142.766;2022-09-01T00:03:47;100211.19;;;18.95;84.58
63700;BME280;49845;47.130;142.766;2022-09-01T00:06:34;100220.19;;;19.09;83.36
63700;BME280;49845;47.130;142.766;2022-09-01T00:09:19;100225.47;;;19.26;83.70
63700;BME280;49845;47.130;142.766;2022-09-01T00:12:06;100230.44;;;19.32;82.79
63700;BME280;49845;47.130;142.766;2022-09-01T00:14:42;100213.78;;;19.30;81.92
63700;BME280;49845;47.130;142.766;2022-09-01T00:17:25;100217.28;;;19.47;82.23
63700;BME280;49845;47.130;142.766;2022-09-01T00:20:09;100216.81;;;19.56;82.28
63700;BME280;49845;47.130;142.766;2022-09-01T00:23:17;100217.47;;;19.77;81.74
63700;BME280;49845;47.130;142.766;2022-09-01T00:26:01;100212.94;;;19.95;81.59
63700;BME280;49845;47.130;142.766;2022-09-01T00:28:57;100209.06;;;20.16;79.99
63700;BME280;49845;47.130;142.766;2022-09-01T00:31:37;100209.53;;;20.39;79.20
63700;BME280;49845;47.130;142.766;2022-09-01T00:34:26;100211.78;;;20.77;78.08
63700;BME280;49845;47.130;142.766;2022-09-01T00:37:21;100207.25;;;20.93;76.70
63700;BME280;49845;47.130;142.766;2022-09-01T00:40:08;100195.28;;;20.86;76.00
63700;BME280;49845;47.130;142.766;2022-09-01T00:42:45;100206.81;;;20.71;74.17
63700;BME280;49845;47.130;142.766;2022-09-01T00:45:34;100185.78;;;20.67;76.30
63700;BME280;49845;47.130;142.766;2022-09-01T00:48:32;100193.09;;;20.78;76.26
63700;BME280;49845;47.130;142.766;2022-09-01T00:51:21;100193.09;;;20.78;75.75
63700;BME280;49845;47.130;142.766;2022-09-01T00:54:13;100196.50;;;20.80;76.48
63700;BME280;49845;47.130;142.766;2022-09-01T00:56:56;100179.91;;;20.77;75.39
63700;BME280;49845;47.130;142.766;2022-09-01T00:59:32;100183.50;;;20.76;75.01
63700;BME280;49845;47.130;142.766;2022-09-01T01:02:43;100146.88;;;20.66;75.54
63700;BME280;49845;47.130;142.766;2022-09-01T01:05:19;100155.84;;;20.80;75.28
63700;BME280;49845;47.130;142.766;2022-09-01T01:08:06;100169.69;;;20.99;72.18
63700;BME280;49845;47.130;142.766;2022-09-01T01:11:03;100166.94;;;21.01;71.35
63700;BME280;49845;47.130;142.766;2022-09-01T01:13:50;100162.19;;;20.92;71.65
63700;BME280;49845;47.130;142.766;2022-09-01T01:16:35;100171.75;;;20.94;71.91
63700;BME280;49845;47.130;142.766;2022-09-01T01:19:30;100165.72;;;20.92;70.75
63700;BME280;49845;47.130;142.766;2022-09-01T01:22:35;100169.69;;;20.99;72.41
63700;BME280;49845;47.130;142.766;2022-09-01T01:25:50;100175.75;;;20.87;70.41
63700;BME280;49845;47.130;142.766;2022-09-01T01:28:31;100139.88;;;20.65;70.27
63700;BME280;49845;47.130;142.766;2022-09-01T01:31:16;100160.38;;;20.78;71.61
63700;BME280;49845;47.130;142.766;2022-09-01T01:34:00;100158.09;;;20.86;71.94
63700;BME280;49845;47.130;142.766;2022-09-01T01:36:41;100150.91;;;21.02;68.80
63700;BME280;49845;47.130;142.766;2022-09-01T01:39:25;100155.06;;;21.21;68.26
63700;BME280;49845;47.130;142.766;2022-09-01T01:42:06;100146.34;;;21.33;66.75
63700;BME280;49845;47.130;142.766;2022-09-01T01:44:49;100155.25;;;21.46;66.30
63700;BME280;49845;47.130;142.766;2022-09-01T01:47:56;100107.81;;;21.26;65.28
63700;BME280;49845;47.130;142.766;2022-09-01T01:50:42;100155.44;;;21.58;65.93
63700;BME280;49845;47.130;142.766;2022-09-01T01:53:33;100149.72;;;21.64;65.25
63700;BME280;49845;47.130;142.766;2022-09-01T01:56:26;100121.28;;;21.51;65.35
63700;BME280;49845;47.130;142.766;2022-09-01T01:59:17;100146.78;;;21.68;65.50
63700;BME280;49845;47.130;142.766;2022-09-01T02:01:56;100110.34;;;21.56;66.54
63700;BME280;49845;47.130;142.766;2022-09-01T02:04:43;100136.97;;;21.83;63.21
63700;BME280;49845;47.130;142.766;2022-09-01T02:07:28;100138.81;;;21.95;62.80
63700;BME280;49845;47.130;142.766;2022-09-01T02:10:07;100134.84;;;22.15;63.29
63700;BME280;49845;47.130;142.766;2022-09-01T02:12:49;100126.16;;;22.26;62.88
63700;BME280;49845;47.130;142.766;2022-09-01T02:19:13;100121.50;;;22.43;63.23
63700;BME280;49845;47.130;142.766;2022-09-01T02:22:09;100127.22;;;22.36;62.18
63700;BME280;49845;47.130;142.766;2022-09-01T02:24:59;100125.75;;;22.32;62.68
63700;BME280;49845;47.130;142.766;2022-09-01T02:27:55;100122.13;;;22.33;62.79
63700;BME280;49845;47.130;142.766;2022-09-01T02:30:46;100117.03;;;22.30;61.99
63700;BME280;49845;47.130;142.766;2022-09-01T02:33:25;100117.81;;;22.18;61.96
63700;BME280;49845;47.130;142.766;2022-09-01T02:36:08;100122.03;;;22.08;62.40
63700;BME280;49845;47.130;142.766;2022-09-01T02:38:54;100114.13;;;21.93;62.47
63700;BME280;49845;47.130;142.766;2022-09-01T02:42:04;100064.84;;;21.61;62.28
63700;BME280;49845;47.130;142.766;2022-09-01T02:44:46;100087.63;;;21.65;62.64
63700;BME280;49845;47.130;142.766;2022-09-01T02:47:30;100098.06;;;21.68;63.72
63700;BME280;49845;47.130;142.766;2022-09-01T02:50:16;100103.38;;;21.68;64.36
63700;BME280;49845;47.130;142.766;2022-09-01T02:53:01;100092.44;;;21.45;63.58
63700;BME280;49845;47.130;142.766;2022-09-01T02:55:58;100102.88;;;21.48;64.75
63700;BME280;49845;47.130;142.766;2022-09-01T02:58:58;100114.75;;;21.43;64.36
63700;BME280;49845;47.130;142.766;2022-09-01T03:01:44;100115.59;;;21.43;65.09
63700;BME280;49845;47.130;142.766;2022-09-01T03:04:42;100098.44;;;21.20;64.65
63700;BME280;49845;47.130;142.766;2022-09-01T03:07:32;100118.63;;;21.23;66.36
63700;BME280;49845;47.130;142.766;2022-09-01T03:10:19;100109.34;;;21.16;65.05
63700;BME280;49845;47.130;142.766;2022-09-01T03:13:23;100113.91;;;21.14;64.99
63700;BME280;49845;47.130;142.766;2022-09-01T03:16:15;100101.94;;;21.06;64.62
63700;BME280;49845;47.130;142.766;2022-09-01T03:18:59;100103.81;;;21.19;66.22
63700;BME280;49845;47.130;142.766;2022-09-01T03:21:47;100051.66;;;20.89;65.96
63700;BME280;49845;47.130;142.766;2022-09-01T03:24:50;100091.31;;;21.21;64.57
63700;BME280;49845;47.130;142.766;2022-09-01T03:27:37;100074.81;;;21.16;65.53
63700;BME280;49845;47.130;142.766;2022-09-01T03:30:14;100083.53;;;21.32;65.57
63700;BME280;49845;47.130;142.766;2022-09-01T03:33:00;100082.56;;;21.33;64.89
63700;BME280;49845;47.130;142.766;2022-09-01T03:35:40;100084.75;;;21.41;64.60
63700;BME280;49845;47.130;142.766;2022-09-01T03:38:28;100069.47;;;21.44;64.72
63700;BME280;49845;47.130;142.766;2022-09-01T03:41:13;100081.09;;;21.56;63.81
63700;BME280;49845;47.130;142.766;2022-09-01T03:44:05;100068.22;;;21.50;64.16
63700;BME280;49845;47.130;142.766;2022-09-01T03:46:49;100075.69;;;21.58;64.92
63700;BME280;49845;47.130;142.766;2022-09-01T03:49:47;100072.06;;;21.59;64.28
63700;BME280;49845;47.130;142.766;2022-09-01T03:52:27;100007.41;;;21.17;64.58
63700;BME280;49845;47.130;142.766;2022-09-01T03:55:33;100070.59;;;21.54;64.23
63700;BME280;49845;47.130;142.766;2022-09-01T03:58:22;100033.97;;;21.31;64.77
63700;BME280;49845;47.130;142.766;2022-09-01T04:00:59;100072.28;;;21.56;65.26
63700;BME280;49845;47.130;142.766;2022-09-01T04:03:41;100046.31;;;21.32;63.45
63700;BME280;49845;47.130;142.766;2022-09-01T04:06:28;100069.66;;;21.41;63.20
63700;BME280;49845;47.130;142.766;2022-09-01T04:09:37;100076.41;;;21.47;64.11
63700;BME280;49845;47.130;142.766;2022-09-01T04:12:33;100066.13;;;21.55;64.14
63700;BME280;49845;47.130;142.766;2022-09-01T04:15:12;100066.56;;;21.62;64.96
63700;BME280;49845;47.130;142.766;2022-09-01T04:17:52;100075.28;;;21.64;64.36
63700;BME280;49845;47.130;142.766;2022-09-01T04:21:01;100065.06;;;21.58;65.16
63700;BME280;49845;47.130;142.766;2022-09-01T04:23:39;100075.69;;;21.58;65.00
63700;BME280;49845;47.130;142.766;2022-09-01T04:26:28;100069.06;;;21.50;64.83
63700;BME280;49845;47.130;142.766;2022-09-01T04:29:27;100059.28;;;21.51;63.79
63700;BME280;49845;47.130;142.766;2022-09-01T04:32:44;100062.75;;;21.66;64.36
63700;BME280;49845;47.130;142.766;2022-09-01T04:35:23;100028.03;;;21.54;64.62
63700;BME280;49845;47.130;142.766;2022-09-01T04:38:06;100057.72;;;21.88;62.98
63700;BME280;49845;47.130;142.766;2022-09-01T04:40:47;100046.47;;;21.97;63.07
63700;BME280;49845;47.130;142.766;2022-09-01T04:43:31;100054.13;;;22.02;61.57
63700;BME280;49845;47.130;142.766;2022-09-01T04:46:27;99988.72;;;21.60;61.07
63700;BME280;49845;47.130;142.766;2022-09-01T04:49:09;100048.44;;;21.94;61.68
63700;BME280;49845;47.130;142.766;2022-09-01T04:51:49;100031.53;;;21.82;60.91
63700;BME280;49845;47.130;142.766;2022-09-01T04:54:26;100043.38;;;22.04;60.70
63700;BME280;49845;47.130;142.766;2022-09-01T04:57:03;100049.22;;;22.09;61.31
63700;BME280;49845;47.130;142.766;2022-09-01T05:00:12;100041.59;;;22.17;60.62
63700;BME280;49845;47.130;142.766;2022-09-01T05:03:09;100030.56;;;22.23;60.69
63700;BME280;49845;47.130;142.766;2022-09-01T05:05:49;100038.66;;;22.34;60.97
63700;BME280;49845;47.130;142.766;2022-09-01T05:08:48;100029.50;;;22.38;61.41
63700;BME280;49845;47.130;142.766;2022-09-01T05:11:27;100029.31;;;22.42;61.04
63700;BME280;49845;47.130;142.766;2022-09-01T05:14:06;100031.41;;;22.36;60.66
63700;BME280;49845;47.130;142.766;2022-09-01T05:16:48;100027.91;;;22.23;60.83
63700;BME280;49845;47.130;142.766;2022-09-01T05:19:24;100002.00;;;22.00;61.24
63700;BME280;49845;47.130;142.766;2022-09-01T05:22:02;100029.13;;;22.05;61.56
63700;BME280;49845;47.130;142.766;2022-09-01T05:24:48;100026.88;;;21.98;62.11
63700;BME280;49845;47.130;142.766;2022-09-01T05:27:26;100018.13;;;21.96;64.33
63700;BME280;49845;47.130;142.766;2022-09-01T05:30:04;100022.59;;;21.83;64.89
63700;BME280;49845;47.130;142.766;2022-09-01T05:32:47;100021.91;;;21.67;65.25
63700;BME280;49845;47.130;142.766;2022-09-01T05:35:38;100031.25;;;21.60;66.23
63700;BME280;49845;47.130;142.766;2022-09-01T05:38:42;100021.63;;;21.44;67.14
63700;BME280;49845;47.130;142.766;2022-09-01T05:41:24;100024.19;;;21.31;66.10
63700;BME280;49845;47.130;142.766;2022-09-01T05:44:13;100030.88;;;21.24;66.89
63700;BME280;49845;47.130;142.766;2022-09-01T05:46:54;100028.66;;;21.17;67.82
63700;BME280;49845;47.130;142.766;2022-09-01T05:49:51;100043.13;;;20.98;67.71
63700;BME280;49845;47.130;142.766;2022-09-01T05:52:40;100013.88;;;20.57;67.14
63700;BME280;49845;47.130;142.766;2022-09-01T05:55:19;100035.75;;;20.60;66.58
63700;BME280;49845;47.130;142.766;2022-09-01T05:58:10;100045.00;;;20.53;66.95
63700;BME280;49845;47.130;142.766;2022-09-01T06:01:01;100047.94;;;20.48;67.67
63700;BME280;49845;47.130;142.766;2022-09-01T06:04:03;100043.56;;;20.33;68.58
63700;BME280;49845;47.130;142.766;2022-09-01T06:06:44;100031.50;;;20.13;69.18
63700;BME280;49845;47.130;142.766;2022-09-01T06:09:52;100056.16;;;20.15;69.32
63700;BME280;49845;47.130;142.766;2022-09-01T06:12:27;100056.09;;;20.01;70.30
63700;BME280;49845;47.130;142.766;2022-09-01T06:15:09;100043.38;;;19.92;71.88
63700;BME280;49845;47.130;142.766;2022-09-01T06:17:47;100060.63;;;19.99;71.98
63700;BME280;49845;47.130;142.766;2022-09-01T06:20:30;100047.69;;;19.78;69.40
63700;BME280;49845;47.130;142.766;2022-09-01T06:23:05;100048.22;;;19.69;69.91
63700;BME280;49845;47.130;142.766;2022-09-01T06:25:55;100047.59;;;19.64;70.51
63700;BME280;49845;47.130;142.766;2022-09-01T06:28:27;100037.44;;;19.56;70.16
63700;BME280;49845;47.130;142.766;2022-09-01T06:31:07;100045.66;;;19.52;71.11
63700;BME280;49845;47.130;142.766;2022-09-01T06:34:04;100038.41;;;19.39;71.16
63700;BME280;49845;47.130;142.766;2022-09-01T06:36:49;100022.16;;;19.14;71.82
63700;BME280;49845;47.130;142.766;2022-09-01T06:39:40;100040.38;;;19.20;71.42
63700;BME280;49845;47.130;142.766;2022-09-01T06:42:31;100033.91;;;19.10;71.70
63700;BME280;49845;47.130;142.766;2022-09-01T06:45:13;100041.56;;;18.99;72.25
63700;BME280;49845;47.130;142.766;2022-09-01T06:47:53;100051.63;;;18.92;72.96
63700;BME280;49845;47.130;142.766;2022-09-01T06:51:02;100048.28;;;18.88;73.46
63700;BME280;49845;47.130;142.766;2022-09-01T06:53:50;100046.00;;;18.98;73.76
63700;BME280;49845;47.130;142.766;2022-09-01T06:56:46;100016.28;;;18.77;73.80
63700;BME280;49845;47.130;142.766;2022-09-01T06:59:59;100045.66;;;18.88;74.08
63700;BME280;49845;47.130;142.766;2022-09-01T07:02:58;100054.19;;;18.93;73.21
63700;BME280;49845;47.130;142.766;2022-09-01T07:05:50;100039.69;;;18.85;73.70
63700;BME280;49845;47.130;142.766;2022-09-01T07:08:36;100052.81;;;18.86;73.21
63700;BME280;49845;47.130;142.766;2022-09-01T07:11:43;100045.38;;;18.77;73.74
63700;BME280;49845;47.130;142.766;2022-09-01T07:15:17;100048.16;;;18.74;73.79
63700;BME280;49845;47.130;142.766;2022-09-01T07:18:23;100051.97;;;18.68;74.00
63700;BME280;49845;47.130;142.766;2022-09-01T07:21:01;100048.50;;;18.68;73.82
63700;BME280;49845;47.130;142.766;2022-09-01T07:24:02;100053.59;;;18.71;74.92
63700;BME280;49845;47.130;142.766;2022-09-01T07:26:41;100051.91;;;18.70;74.42
63700;BME280;49845;47.130;142.766;2022-09-01T07:29:24;100062.50;;;18.70;74.53
63700;BME280;49845;47.130;142.766;2022-09-01T07:32:21;100075.13;;;18.65;75.03
63700;BME280;49845;47.130;142.766;2022-09-01T07:35:12;100071.19;;;18.72;74.49
63700;BME280;49845;47.130;142.766;2022-09-01T07:37:47;100069.50;;;18.71;74.58
63700;BME280;49845;47.130;142.766;2022-09-01T07:41:09;100072.47;;;18.82;74.72
63700;BME280;49845;47.130;142.766;2022-09-01T07:44:08;100069.88;;;18.81;74.47
63700;BME280;49845;47.130;142.766;2022-09-01T07:47:12;100070.84;;;18.80;74.56
63700;BME280;49845;47.130;142.766;2022-09-01T07:49:51;100079.47;;;18.83;74.23
63700;BME280;49845;47.130;142.766;2022-09-01T07:52:49;100090.22;;;18.80;74.90
63700;BME280;49845;47.130;142.766;2022-09-01T07:55:35;100085.19;;;18.91;75.24
63700;BME280;49845;47.130;142.766;2022-09-01T07:58:22;100084.41;;;18.89;75.44
63700;BME280;49845;47.130;142.766;2022-09-01T08:01:13;100082.88;;;18.85;77.93
63700;BME280;49845;47.130;142.766;2022-09-01T08:03:58;100088.00;;;18.88;78.59
63700;BME280;49845;47.130;142.766;2022-09-01T08:07:04;100083.06;;;18.82;78.37
63700;BME280;49845;47.130;142.766;2022-09-01T08:09:47;100077.59;;;18.85;79.01
63700;BME280;49845;47.130;142.766;2022-09-01T08:12:34;100080.41;;;18.82;79.55
63700;BME280;49845;47.130;142.766;2022-09-01T08:15:17;100082.50;;;18.75;80.10
63700;BME280;49845;47.130;142.766;2022-09-01T08:18:16;100091.06;;;18.81;80.11
63700;BME280;49845;47.130;142.766;2022-09-01T08:20:54;100102.94;;;18.72;80.57
63700;BME280;49845;47.130;142.766;2022-09-01T08:23:43;100100.03;;;18.61;81.15
63700;BME280;49845;47.130;142.766;2022-09-01T08:26:25;100099.41;;;18.56;81.49
63700;BME280;49845;47.130;142.766;2022-09-01T08:29:10;100099.41;;;18.56;82.05
63700;BME280;49845;47.130;142.766;2022-09-01T08:31:51;100102.84;;;18.58;82.27
63700;BME280;49845;47.130;142.766;2022-09-01T08:34:29;100105.31;;;18.61;82.26
63700;BME280;49845;47.130;142.766;2022-09-01T08:37:21;100111.91;;;18.52;82.50
63700;BME280;49845;47.130;142.766;2022-09-01T08:40:06;100113.09;;;18.46;82.75
63700;BME280;49845;47.130;142.766;2022-09-01T08:42:59;100112.72;;;18.37;83.37
63700;BME280;49845;47.130;142.766;2022-09-01T08:45:57;100110.47;;;18.29;83.21
63700;BME280;49845;47.130;142.766;2022-09-01T08:48:55;100093.34;;;18.19;83.37
63700;BME280;49845;47.130;142.766;2022-09-01T08:52:10;100039.81;;;17.79;83.75
63700;BME280;49845;47.130;142.766;2022-09-01T08:58:30;100103.28;;;17.96;84.79
63700;BME280;49845;47.130;142.766;2022-09-01T09:01:15;100101.34;;;17.82;85.48
63700;BME280;49845;47.130;142.766;2022-09-01T09:04:12;100112.75;;;17.83;85.86
63700;BME280;49845;47.130;142.766;2022-09-01T09:07:05;100113.16;;;17.74;86.35
63700;BME280;49845;47.130;142.766;2022-09-01T09:10:09;100049.97;;;17.33;86.57
63700;BME280;49845;47.130;142.766;2022-09-01T09:13:04;100101.50;;;17.60;86.59
63700;BME280;49845;47.130;142.766;2022-09-01T09:15:58;100126.59;;;17.69;87.15
63700;BME280;49845;47.130;142.766;2022-09-01T09:18:49;100120.63;;;17.65;86.99
63700;BME280;49845;47.130;142.766;2022-09-01T09:21:31;100109.78;;;17.53;87.52
63700;BME280;49845;47.130;142.766;2022-09-01T09:24:19;100141.91;;;17.62;87.51
63700;BME280;49845;47.130;142.766;2022-09-01T09:27:10;100146.56;;;17.57;87.69
63700;BME280;49845;47.130;142.766;2022-09-01T09:30:15;100145.78;;;17.55;87.98
63700;BME280;49845;47.130;142.766;2022-09-01T09:33:34;100156.19;;;17.58;87.93
63700;BME280;49845;47.130;142.766;2022-09-01T09:36:31;100152.16;;;17.50;88.52
63700;BME280;49845;47.130;142.766;2022-09-01T09:39:23;100168.75;;;17.53;88.68
63700;BME280;49845;47.130;142.766;2022-09-01T09:42:05;100158.19;;;17.53;88.87
63700;BME280;49845;47.130;142.766;2022-09-01T09:44:47;100168.75;;;17.53;89.38
63700;BME280;49845;47.130;142.766;2022-09-01T09:47:37;100160.03;;;17.51;88.91
63700;BME280;49845;47.130;142.766;2022-09-01T09:50:45;100142.41;;;17.33;88.80
63700;BME280;49845;47.130;142.766;2022-09-01T09:53:27;100172.44;;;17.49;89.24
63700;BME280;49845;47.130;142.766;2022-09-01T09:56:06;100179.47;;;17.50;89.63
63700;BME280;49845;47.130;142.766;2022-09-01T09:58:48;100179.47;;;17.50;89.63
63700;BME280;49845;47.130;142.766;2022-09-01T10:01:34;100182.16;;;17.49;89.78
63700;BME280;49845;47.130;142.766;2022-09-01T10:04:12;100182.31;;;17.45;90.06
63700;BME280;49845;47.130;142.766;2022-09-01T10:07:34;100176.31;;;17.42;90.58
63700;BME280;49845;47.130;142.766;2022-09-01T10:10:28;100178.38;;;17.35;90.66
63700;BME280;49845;47.130;142.766;2022-09-01T10:13:14;100182.81;;;17.35;90.52
63700;BME280;49845;47.130;142.766;2022-09-01T10:16:22;100175.81;;;17.34;90.68
63700;BME280;49845;47.130;142.766;2022-09-01T10:19:03;100185.56;;;17.32;90.80
63700;BME280;49845;47.130;142.766;2022-09-01T10:21:48;100191.00;;;17.29;90.66
63700;BME280;49845;47.130;142.766;2022-09-01T10:24:32;100205.16;;;17.28;90.93
63700;BME280;49845;47.130;142.766;2022-09-01T10:27:18;100214.78;;;17.29;90.71
63700;BME280;49845;47.130;142.766;2022-09-01T10:30:04;100206.84;;;17.29;90.60
63700;BME280;49845;47.130;142.766;2022-09-01T10:32:52;100148.41;;;16.97;90.85
63700;BME280;49845;47.130;142.766;2022-09-01T10:35:58;100186.41;;;17.13;90.97
63700;BME280;49845;47.130;142.766;2022-09-01T10:38:40;100200.97;;;17.22;91.11
63700;BME280;49845;47.130;142.766;2022-09-01T10:41:55;100218.59;;;17.21;91.01
63700;BME280;49845;47.130;142.766;2022-09-01T10:44:56;100213.47;;;17.18;91.16
63700;BME280;49845;47.130;142.766;2022-09-01T10:47:38;100215.97;;;17.21;91.06
63700;BME280;49845;47.130;142.766;2022-09-01T10:50:29;100223.09;;;17.19;91.37
63700;BME280;49845;47.130;142.766;2022-09-01T10:53:42;100220.75;;;17.13;91.11
63700;BME280;49845;47.130;142.766;2022-09-01T10:56:23;100226.03;;;17.13;91.28
63700;BME280;49845;47.130;142.766;2022-09-01T10:59:29;100206.38;;;17.00;91.27
63700;BME280;49845;47.130;142.766;2022-09-01T11:02:39;100224.22;;;17.14;91.42
63700;BME280;49845;47.130;142.766;2022-09-01T11:05:25;100230.38;;;17.14;91.21
63700;BME280;49845;47.130;142.766;2022-09-01T11:08:38;100227.06;;;17.09;91.28
63700;BME280;49845;47.130;142.766;2022-09-01T11:11:29;100242.00;;;17.10;91.39
63700;BME280;49845;47.130;142.766;2022-09-01T11:14:17;100220.47;;;16.99;91.28
63700;BME280;49845;47.130;142.766;2022-09-01T11:17:12;100237.72;;;17.08;91.19
63700;BME280;49845;47.130;142.766;2022-09-01T11:19:59;100242.91;;;17.09;91.27
63700;BME280;49845;47.130;142.766;2022-09-01T11:22:42;100234.47;;;17.01;91.34
63700;BME280;49845;47.130;142.766;2022-09-01T11:25:38;100239.38;;;17.10;91.28
63700;BME280;49845;47.130;142.766;2022-09-01T11:28:48;100237.47;;;17.12;91.38
63700;BME280;49845;47.130;142.766;2022-09-01T11:31:44;100168.88;;;16.71;91.11
63700;BME280;49845;47.130;142.766;2022-09-01T11:34:53;100230.66;;;17.08;91.55
63700;BME280;49845;47.130;142.766;2022-09-01T11:37:48;100210.72;;;17.01;91.70
63700;BME280;49845;47.130;142.766;2022-09-01T11:40:35;100198.19;;;16.86;91.69
63700;BME280;49845;47.130;142.766;2022-09-01T11:43:22;100216.19;;;16.96;92.03
63700;BME280;49845;47.130;142.766;2022-09-01T11:46:20;100210.78;;;16.99;91.67
63700;BME280;49845;47.130;142.766;2022-09-01T11:49:27;100207.63;;;16.91;91.94
63700;BME280;49845;47.130;142.766;2022-09-01T11:52:29;100207.91;;;16.85;92.29
63700;BME280;49845;47.130;142.766;2022-09-01T11:55:29;100215.72;;;16.87;92.91
63700;BME280;49845;47.130;142.766;2022-09-01T11:58:04;100214.81;;;16.88;93.07
63700;BME280;49845;47.130;142.766;2022-09-01T12:00:51;100205.47;;;16.80;93.29
63700;BME280;49845;47.130;142.766;2022-09-01T12:03:28;100206.34;;;16.79;93.80
63700;BME280;49845;47.130;142.766;2022-09-01T12:06:17;100205.66;;;16.74;94.46
63700;BME280;49845;47.130;142.766;2022-09-01T12:09:07;100167.88;;;16.53;94.79
63700;BME280;49845;47.130;142.766;2022-09-01T12:11:56;100199.47;;;16.75;95.19
63700;BME280;49845;47.130;142.766;2022-09-01T12:14:43;100190.13;;;16.68;95.43
63700;BME280;49845;47.130;142.766;2022-09-01T12:18:19;100172.69;;;16.64;96.03
63700;BME280;49845;47.130;142.766;2022-09-01T12:21:19;100177.97;;;16.64;96.24
63700;BME280;49845;47.130;142.766;2022-09-01T12:24:23;100165.84;;;16.60;96.60
63700;BME280;49845;47.130;142.766;2022-09-01T12:27:09;100166.63;;;16.62;96.91
63700;BME280;49845;47.130;142.766;2022-09-01T12:29:48;100162.13;;;16.64;96.97
63700;BME280;49845;47.130;142.766;2022-09-01T12:32:33;100157.66;;;16.66;96.98
63700;BME280;49845;47.130;142.766;2022-09-01T12:35:20;100153.19;;;16.68;97.02
63700;BME280;49845;47.130;142.766;2022-09-01T12:38:24;100147.09;;;16.66;96.82
63700;BME280;49845;47.130;142.766;2022-09-01T12:44:44;100121.78;;;16.62;96.82
63700;BME280;49845;47.130;142.766;2022-09-01T12:47:48;100116.63;;;16.59;96.93
63700;BME280;49845;47.130;142.766;2022-09-01T12:50:43;100111.50;;;16.56;97.01
63700;BME280;49845;47.130;142.766;2022-09-01T12:53:26;100122.09;;;16.54;97.19
63700;BME280;49845;47.130;142.766;2022-09-01T12:56:32;100123.75;;;16.57;97.51
63700;BME280;49845;47.130;142.766;2022-09-01T12:59:19;100118.47;;;16.57;97.66
63700;BME280;49845;47.130;142.766;2022-09-01T13:05:26;100122.91;;;16.56;97.64
63700;BME280;49845;47.130;142.766;2022-09-01T13:08:13;100116.78;;;16.56;97.75
63700;BME280;49845;47.130;142.766;2022-09-01T13:10:52;100117.03;;;16.50;97.67
63700;BME280;49845;47.130;142.766;2022-09-01T13:13:29;100115.31;;;16.49;97.53
63700;BME280;49845;47.130;142.766;2022-09-01T13:16:09;100103.66;;;16.54;97.47
63700;BME280;49845;47.130;142.766;2022-09-01T13:18:46;100101.94;;;16.53;97.53
63700;BME280;49845;47.130;142.766;2022-09-01T13:21:47;100095.81;;;16.53;97.30
63700;BME280;49845;47.130;142.766;2022-09-01T13:24:27;100092.53;;;16.48;97.42
63700;BME280;49845;47.130;142.766;2022-09-01T13:27:05;100100.28;;;16.51;97.46
63700;BME280;49845;47.130;142.766;2022-09-01T13:29:56;100097.66;;;16.51;97.59
63700;BME280;49845;47.130;142.766;2022-09-01T13:32:47;100099.34;;;16.52;97.67
63700;BME280;49845;47.130;142.766;2022-09-01T13:35:58;100106.22;;;16.56;97.64
63700;BME280;49845;47.130;142.766;2022-09-01T13:39:13;100109.81;;;16.55;97.59
63700;BME280;49845;47.130;142.766;2022-09-01T13:42:12;100108.22;;;16.51;97.34
63700;BME280;49845;47.130;142.766;2022-09-01T13:44:54;100104.91;;;16.46;97.59
63700;BME280;49845;47.130;142.766;2022-09-01T13:47:45;100084.22;;;16.36;97.73
63700;BME280;49845;47.130;142.766;2022-09-01T13:50:40;100074.50;;;16.37;97.33
63700;BME280;49845;47.130;142.766;2022-09-01T13:53:51;100033.66;;;16.06;96.97
63700;BME280;49845;47.130;142.766;2022-09-01T13:56:41;100023.25;;;16.03;96.46
63700;BME280;49845;47.130;142.766;2022-09-01T13:59:32;100082.59;;;16.32;96.26
63700;BME280;49845;47.130;142.766;2022-09-01T14:02:19;100095.03;;;16.30;96.36
63700;BME280;49845;47.130;142.766;2022-09-01T14:05:09;100090.59;;;16.31;96.25
63700;BME280;49845;47.130;142.766;2022-09-01T14:07:51;100095.88;;;16.31;96.44
63700;BME280;49845;47.130;142.766;2022-09-01T14:10:35;100086.56;;;16.22;96.47
63700;BME280;49845;47.130;142.766;2022-09-01T14:13:24;100036.63;;;15.99;96.60
63700;BME280;49845;47.130;142.766;2022-09-01T14:16:10;100104.78;;;16.28;96.96
63700;BME280;49845;47.130;142.766;2022-09-01T14:19:02;100061.28;;;15.98;96.86
63700;BME280;49845;47.130;142.766;2022-09-01T14:21:43;100122.09;;;16.34;97.35
63700;BME280;49845;47.130;142.766;2022-09-01T14:24:30;100122.25;;;16.31;97.56
63700;BME280;49845;47.130;142.766;2022-09-01T14:27:14;100125.59;;;16.34;97.78
63700;BME280;49845;47.130;142.766;2022-09-01T14:29:57;100112.69;;;16.28;97.71
63700;BME280;49845;47.130;142.766;2022-09-01T14:32:37;100130.88;;;16.34;97.55
63700;BME280;49845;47.130;142.766;2022-09-01T14:35:16;100102.53;;;16.19;97.71
63700;BME280;49845;47.130;142.766;2022-09-01T14:37:52;100128.22;;;16.34;97.66
63700;BME280;49845;47.130;142.766;2022-09-01T14:40:48;100105.97;;;16.21;97.71